Date,TemperatureHighF,TemperatureAvgF,TemperatureLowF,DewpointHighF,DewpointAvgF,DewpointLowF,HumidityHigh,HumidityAvg,HumidityLow,PressureMaxIn,PressureMinIn,WindSpeedMaxMPH,WindSpeedAvgMPH,GustSpeedMaxMPH,PrecipitationSumIn
2013-6-1,92,83,76,73,68,57,83,61,45,29.79,29.50,18,5,18,0.00
2013-6-2,92,80,69,60,56,51,64,46,29,29.93,29.70,15,3,15,0.00
2013-6-3,96,82,69,69,62,55,66,52,33,29.82,29.59,17,3,17,0.00
2013-6-4,103,88,75,69,64,59,71,48,27,29.66,29.50,16,4,16,0.00
2013-6-5,103,84,65,67,61,53,94,49,20,29.66,29.47,42,3,42,0.10
2013-6-6,87,76,66,66,62,57,85,63,45,29.80,29.59,29,4,29,0.00
2013-6-7,83,73,66,65,60,53,92,67,36,29.89,29.72,17,2,17,0.11
2013-6-8,90,77,63,67,61,56,79,58,42,29.79,29.57,13,3,14,0.00
2013-6-9,91,76,66,69,66,60,94,71,38,29.82,29.62,18,2,18,0.17
2013-6-10,98,87,69,71,58,45,88,43,17,29.84,29.71,12,3,13,0.00
2013-6-11,98,85,73,70,64,59,79,52,29,29.82,29.70,15,4,15,0.00
2013-6-12,94,83,72,69,65,62,82,57,37,29.85,29.72,15,4,17,0.00
2013-6-13,96,82,74,71,68,62,86,64,34,29.87,29.70,28,3,28,0.13
2013-6-14,84,76,67,69,67,64,92,74,54,29.85,29.74,14,3,15,0.12
2013-6-15,86,76,68,73,68,65,92,77,56,29.85,29.73,13,2,14,0.17
2013-6-16,97,83,70,73,69,66,91,67,40,29.86,29.68,14,2,14,0.00
2013-6-17,98,85,70,72,69,61,89,62,34,29.85,29.62,20,3,20,0.09
2013-6-18,91,77,65,68,65,62,96,69,43,29.88,29.73,23,2,26,0.28
2013-6-19,98,84,71,71,66,61,87,58,32,29.78,29.68,18,2,18,0.00
2013-6-20,95,85,76,68,66,64,75,55,37,29.81,29.69,12,4,16,0.00
2013-6-21,95,85,76,70,66,61,80,55,35,29.84,29.71,17,4,17,0.00
2013-6-22,97,85,75,69,63,56,78,50,27,29.79,29.65,19,5,20,0.00
2013-6-23,96,85,75,67,63,57,65,49,28,29.74,29.62,22,5,22,0.00
2013-6-24,95,84,74,69,66,62,77,56,36,29.79,29.65,17,5,19,0.00
2013-6-25,102,88,77,70,67,62,77,54,32,29.75,29.60,15,4,15,0.00
2013-6-26,105,90,77,72,67,63,75,50,27,29.72,29.61,13,4,14,0.00
2013-6-27,105,90,77,70,61,47,74,42,16,29.80,29.69,12,2,13,0.00
2013-6-28,104,90,72,68,58,52,61,38,21,29.84,29.65,13,2,13,0.00
2013-6-29,105,91,76,68,61,54,64,38,21,29.74,29.57,12,2,12,0.00
2013-6-30,94,83,70,68,64,58,90,57,34,29.80,29.64,26,2,26,0.10